Time;durP1;ratioP1;P1;durP2;ratioP2;P2;SDS_P1;SDS_P2;PMS_P1;PMS_P2;Temp;Humidity;BMP_temperature;BMP_pressure;BME280_temperature;BME280_humidity;BME280_pressure;Samples;Min_cycle;Max_cycle;Signal;HPM_P1;HPM_P2
2021/01/13 00:01:16;;;;;;;37.95;16.30;;;;;;;-0.83;89.07;97524.45;2178879;82;21150;-67
2021/01/13 00:04:17;;;;;;;37.25;14.00;;;;;;;-0.82;89.13;97524.85;2162462;81;21277;-66
2021/01/13 00:07:18;;;;;;;35.13;13.68;;;;;;;-0.81;89.10;97526.08;2161102;82;21301;-68
2021/01/13 00:10:19;;;;;;;32.93;13.43;;;;;;;-0.80;89.08;97529.05;2161460;82;21336;-68
2021/01/13 00:13:20;;;;;;;34.80;14.03;;;;;;;-0.78;89.08;97533.69;2160978;82;21097;-67
2021/01/13 00:16:21;;;;;;;33.75;14.15;;;;;;;-0.74;89.10;97531.86;2161074;82;21603;-67
2021/01/13 00:19:22;;;;;;;30.00;11.73;;;;;;;-0.73;89.05;97536.95;2161421;82;21290;-66
2021/01/13 00:22:24;;;;;;;32.10;12.88;;;;;;;-0.73;89.61;97538.24;2160961;82;21147;-66
2021/01/13 00:25:25;;;;;;;29.23;11.40;;;;;;;-0.72;89.34;97544.22;2161205;82;21313;-66
2021/01/13 00:28:27;;;;;;;30.65;11.33;;;;;;;-0.70;89.15;97538.59;2161318;82;21277;-70
2021/01/13 00:31:28;;;;;;;30.80;11.50;;;;;;;-0.70;89.08;97551.46;2161318;82;21597;-66
2021/01/13 00:34:29;;;;;;;27.85;9.05;;;;;;;-0.71;89.17;97545.45;2161170;82;21758;-66
2021/01/13 00:37:31;;;;;;;31.90;12.40;;;;;;;-0.71;89.43;97548.02;2161298;82;21294;-66
2021/01/13 00:40:32;;;;;;;27.35;11.20;;;;;;;-0.70;89.60;97545.02;2161202;82;21281;-69
2021/01/13 00:43:33;;;;;;;30.52;11.08;;;;;;;-0.68;89.52;97547.55;2161042;82;21611;-67
2021/01/13 00:46:34;;;;;;;27.35;10.00;;;;;;;-0.70;89.93;97542.45;2161177;82;21193;-67
2021/01/13 00:49:35;;;;;;;29.30;10.65;;;;;;;-0.69;90.03;97555.69;2161319;82;21277;-71
2021/01/13 00:52:36;;;;;;;30.52;12.45;;;;;;;-0.66;89.70;97556.90;2139885;82;21301;-70
2021/01/13 00:55:38;;;;;;;29.57;11.10;;;;;;;-0.64;89.63;97568.43;2161383;82;21329;-71
2021/01/13 00:58:39;;;;;;;30.02;11.30;;;;;;;-0.64;89.85;97576.98;2161042;82;21741;-70
2021/01/13 01:01:40;;;;;;;30.48;12.15;;;;;;;-0.63;89.99;97561.94;2161383;82;21277;-69
2021/01/13 01:04:42;;;;;;;30.92;10.85;;;;;;;-0.62;90.42;97584.66;2160951;81;21631;-67
2021/01/13 01:07:43;;;;;;;29.25;11.63;;;;;;;-0.63;90.71;97580.39;2160949;82;21131;-70
2021/01/13 01:10:45;;;;;;;34.40;12.07;;;;;;;-0.64;90.95;97590.33;2161059;82;21175;-71
2021/01/13 01:13:47;;;;;;;30.02;9.93;;;;;;;-0.64;91.58;97586.45;2161021;82;21588;-66
2021/01/13 01:16:48;;;;;;;28.25;10.80;;;;;;;-0.63;91.40;97588.12;2161425;82;21286;-66
2021/01/13 01:19:49;;;;;;;26.03;8.90;;;;;;;-0.64;91.43;97595.47;2161132;82;21155;-66
2021/01/13 01:22:50;;;;;;;20.50;6.10;;;;;;;-0.63;91.62;97599.70;2161380;82;21113;-67
2021/01/13 01:25:52;;;;;;;28.30;10.00;;;;;;;-0.61;91.44;97605.20;2161109;82;21615;-68
2021/01/13 01:28:53;;;;;;;27.60;9.13;;;;;;;-0.59;91.73;97603.44;2161595;82;21289;-67
2021/01/13 01:31:55;;;;;;;25.88;9.28;;;;;;;-0.57;91.78;97613.68;2161161;82;21269;-67
2021/01/13 01:34:56;;;;;;;24.90;9.45;;;;;;;-0.56;91.78;97617.91;2161162;82;21302;-71
2021/01/13 01:48:34;;;;;;;22.25;7.60;;;;;;;-0.56;87.91;97636.80;2342474;75;22791;-67
2021/01/13 01:51:35;;;;;;;23.65;7.80;;;;;;;-0.60;87.03;97646.81;2309317;77;21276;-66
2021/01/13 01:54:36;;;;;;;23.35;7.78;;;;;;;-0.63;86.85;97653.80;2313127;77;21273;-65
2021/01/13 01:57:38;;;;;;;22.77;8.03;;;;;;;-0.64;86.78;97654.25;2311066;77;21327;-66
2021/01/13 02:00:39;;;;;;;24.05;7.90;;;;;;;-0.66;87.17;97644.89;2311602;77;21588;-66
2021/01/13 02:03:40;;;;;;;23.92;8.65;;;;;;;-0.70;86.48;97659.16;2306050;77;21247;-67
2021/01/13 02:06:42;;;;;;;22.05;7.37;;;;;;;-0.71;86.51;97671.64;2316114;77;21688;-66
2021/01/13 02:09:43;;;;;;;24.40;7.92;;;;;;;-0.75;86.11;97670.09;2308853;77;21181;-66
2021/01/13 02:12:44;;;;;;;23.20;7.78;;;;;;;-0.75;86.21;97658.92;2309333;77;21268;-71
2021/01/13 02:15:45;;;;;;;23.32;8.48;;;;;;;-0.79;86.34;97658.63;2313768;77;21569;-66
2021/01/13 02:18:46;;;;;;;25.35;8.33;;;;;;;-0.79;86.07;97672.80;2303910;77;21330;-66
2021/01/13 02:21:47;;;;;;;24.25;8.25;;;;;;;-0.81;85.77;97677.17;2310929;77;21295;-66
2021/01/13 02:24:48;;;;;;;23.45;7.55;;;;;;;-0.84;85.83;97681.14;2313693;77;21545;-66
2021/01/13 02:27:49;;;;;;;21.97;7.20;;;;;;;-0.87;85.35;97684.65;2313603;77;21122;-66
2021/01/13 02:30:50;;;;;;;20.40;6.70;;;;;;;-0.89;84.22;97700.58;2308912;77;21259;-66
2021/01/13 02:33:52;;;;;;;21.23;6.10;;;;;;;-0.89;83.84;97700.58;2304774;77;21280;-67
2021/01/13 02:36:53;;;;;;;17.42;5.25;;;;;;;-0.93;82.47;97705.00;2314081;77;21288;-67
2021/01/13 02:39:54;;;;;;;22.02;6.75;;;;;;;-0.96;82.54;97688.80;2309860;77;21252;-66
2021/01/13 02:42:55;;;;;;;21.10;6.50;;;;;;;-1.00;83.51;97691.93;2307770;77;21161;-70
2021/01/13 02:45:56;;;;;;;20.08;6.20;;;;;;;-1.01;83.99;97688.95;2292948;77;21256;-65
2021/01/13 02:48:57;;;;;;;21.02;6.92;;;;;;;-1.05;83.55;97706.66;2302490;77;21272;-67
2021/01/13 02:51:58;;;;;;;20.80;7.20;;;;;;;-1.07;84.62;97691.27;2336042;76;21257;-69
2021/01/13 02:55:00;;;;;;;20.70;6.50;;;;;;;-1.11;84.85;97694.83;2308840;77;21672;-68
2021/01/13 02:58:01;;;;;;;20.48;7.10;;;;;;;-1.13;85.04;97682.93;2310603;77;21271;-65
2021/01/13 03:01:02;;;;;;;21.93;7.28;;;;;;;-1.16;85.31;97681.29;2307878;77;21701;-66
2021/01/13 03:04:03;;;;;;;19.85;6.08;;;;;;;-1.18;85.26;97692.52;2307687;77;21299;-65
2021/01/13 03:07:04;;;;;;;21.10;6.50;;;;;;;-1.19;85.35;97695.55;2328807;76;21248;-66
2021/01/13 03:10:05;;;;;;;23.22;7.42;;;;;;;-1.19;85.40;97687.83;2309356;77;21719;-65
2021/01/13 03:13:08;;;;;;;21.05;7.60;;;;;;;-1.20;85.29;97698.17;2311591;77;21300;-67
2021/01/13 03:19:35;;;;;;;20.23;6.65;;;;;;;-1.15;85.16;97698.42;2339272;75;22993;-66
2021/01/13 03:22:37;;;;;;;20.88;6.37;;;;;;;-1.19;85.12;97703.27;2295129;77;21283;-68
2021/01/13 03:25:38;;;;;;;19.90;5.62;;;;;;;-1.19;85.07;97701.98;2300689;77;21699;-66
2021/01/13 03:28:39;;;;;;;20.30;6.22;;;;;;;-1.23;84.99;97696.07;2309501;77;21275;-66
2021/01/13 03:31:40;;;;;;;19.35;5.87;;;;;;;-1.29;84.64;97699.30;2310874;77;21248;-66
2021/01/13 03:34:41;;;;;;;18.07;5.47;;;;;;;-1.38;84.80;97696.54;2335641;76;21266;-67
2021/01/13 03:37:42;;;;;;;19.80;6.15;;;;;;;-1.47;84.70;97699.41;2308598;77;21156;-66
2021/01/13 03:40:45;;;;;;;20.60;6.20;;;;;;;-1.53;85.06;97703.46;2266725;77;21699;-70
2021/01/13 03:43:46;;;;;;;19.25;5.60;;;;;;;-1.54;84.92;97702.59;2311010;77;21078;-69
2021/01/13 03:46:47;;;;;;;20.10;6.03;;;;;;;-1.58;84.68;97701.87;2311773;77;21268;-70
2021/01/13 03:49:49;;;;;;;20.02;5.75;;;;;;;-1.64;84.09;97703.77;2310798;77;21260;-70
2021/01/13 03:52:50;;;;;;;18.82;6.17;;;;;;;-1.70;84.60;97707.36;2308594;77;21135;-71
2021/01/13 03:55:51;;;;;;;22.45;7.03;;;;;;;-1.72;84.53;97701.86;2309866;77;21280;-69
2021/01/13 03:58:52;;;;;;;24.40;7.62;;;;;;;-1.71;84.67;97711.27;2314746;77;21268;-67
2021/01/13 04:01:53;;;;;;;23.15;6.90;;;;;;;-1.68;84.81;97706.89;2313579;77;21114;-69
2021/01/13 04:04:54;;;;;;;22.10;6.78;;;;;;;-1.61;84.86;97710.10;2309064;77;21755;-71
2021/01/13 04:07:56;;;;;;;20.12;6.35;;;;;;;;;;2308474;77;21133;-70
2021/01/13 04:10:57;;;;;;;17.05;5.22;;;;;;;-1.55;85.02;97712.94;2335969;76;21273;-70
2021/01/13 04:13:58;;;;;;;18.85;5.28;;;;;;;-1.53;85.25;97713.75;2305199;77;21684;-71
2021/01/13 04:16:59;;;;;;;18.00;5.25;;;;;;;-1.50;85.55;97717.52;2310683;77;21134;-71
2021/01/13 04:20:01;;;;;;;20.57;6.47;;;;;;;-1.49;85.86;97717.92;2298352;77;21276;-70
2021/01/13 04:23:02;;;;;;;23.50;7.30;;;;;;;-1.46;86.05;97718.66;2304800;77;21295;-70
2021/01/13 04:26:03;;;;;;;23.07;7.42;;;;;;;-1.45;86.36;97711.77;2302876;77;21277;-71
2021/01/13 04:29:04;;;;;;;21.23;6.25;;;;;;;-1.47;87.04;97709.70;2307547;77;21303;-72
2021/01/13 04:32:05;;;;;;;21.12;6.45;;;;;;;-1.47;87.35;97705.38;2335410;76;21269;-70
2021/01/13 04:35:06;;;;;;;21.73;6.40;;;;;;;-1.48;87.85;97712.73;2309164;77;21747;-71
2021/01/13 04:38:07;;;;;;;22.80;7.50;;;;;;;-1.50;88.05;97708.05;2313132;77;21141;-72
2021/01/13 04:41:08;;;;;;;25.43;8.08;;;;;;;-1.52;88.29;97711.12;2293473;77;21259;-70
2021/01/13 04:44:10;;;;;;;23.18;7.83;;;;;;;-1.51;88.34;97710.22;2286981;77;21149;-71
2021/01/13 04:47:11;;;;;;;25.88;7.83;;;;;;;-1.52;88.68;97714.13;2309711;77;21236;-69
2021/01/13 04:50:12;;;;;;;26.02;9.00;;;;;;;-1.51;88.89;97715.36;2300902;77;21597;-72
2021/01/13 04:53:13;;;;;;;23.97;7.90;;;;;;;-1.48;88.64;97717.01;2301371;77;21783;-70
2021/01/13 04:56:15;;;;;;;23.95;8.43;;;;;;;-1.47;89.10;97725.13;2310541;77;21122;-71
2021/01/13 04:59:17;;;;;;;25.15;9.48;;;;;;;-1.44;88.83;97718.18;2306548;77;21265;-71
2021/01/13 05:02:20;;;;;;;28.73;11.00;;;;;;;-1.41;88.89;97720.66;2307911;77;21593;-69
2021/01/13 05:05:21;;;;;;;38.55;12.82;;;;;;;-1.37;88.98;97723.13;2304627;77;21712;-67
2021/01/13 05:08:23;;;;;;;37.58;13.13;;;;;;;-1.37;88.91;97725.70;2341437;75;21522;-66
2021/01/13 05:11:24;;;;;;;36.13;13.60;;;;;;;-1.38;89.16;97732.56;2310752;77;21766;-67
2021/01/13 05:14:25;;;;;;;38.42;12.45;;;;;;;-1.37;89.31;97721.84;2305343;77;21297;-66
2021/01/13 05:17:26;;;;;;;32.63;12.20;;;;;;;-1.36;89.53;97724.82;2303761;77;21257;-66
2021/01/13 05:20:27;;;;;;;32.03;11.83;;;;;;;-1.35;89.57;97722.63;2305989;77;21284;-66
2021/01/13 05:23:29;;;;;;;28.87;9.38;;;;;;;-1.33;89.61;97720.41;2304119;77;21283;-65
2021/01/13 05:26:30;;;;;;;26.25;8.08;;;;;;;-1.33;90.32;97724.27;2303242;77;21743;-67
2021/01/13 05:29:32;;;;;;;24.27;6.55;;;;;;;-1.32;90.64;97732.81;2331922;76;21293;-68
2021/01/13 05:32:33;;;;;;;24.07;7.73;;;;;;;-1.33;90.89;97738.42;2303321;77;21268;-67
2021/01/13 05:35:34;;;;;;;21.90;6.15;;;;;;;-1.29;90.79;97743.05;2308944;77;21951;-66
2021/01/13 05:38:35;;;;;;;15.40;4.70;;;;;;;-1.24;90.81;97743.27;2307522;77;21281;-67
2021/01/13 05:41:36;;;;;;;14.83;4.92;;;;;;;-1.19;90.26;97753.87;2307449;77;21683;-70
2021/01/13 05:44:38;;;;;;;15.35;4.55;;;;;;;-1.14;90.05;97768.73;2298304;77;21312;-66
2021/01/13 05:47:39;;;;;;;18.35;5.28;;;;;;;-1.08;89.14;97768.12;2338026;76;21151;-66
2021/01/13 05:50:40;;;;;;;16.75;4.58;;;;;;;-1.03;89.08;97770.54;2307835;77;21704;-66
2021/01/13 05:53:41;;;;;;;16.50;4.87;;;;;;;-1.01;88.79;97774.35;2309563;77;21279;-69
2021/01/13 05:56:42;;;;;;;15.10;4.10;;;;;;;-0.98;88.88;97783.27;2307779;77;21260;-66
2021/01/13 05:59:44;;;;;;;12.35;3.55;;;;;;;-0.98;87.89;97790.53;2308307;77;21172;-66
2021/01/13 06:02:45;;;;;;;11.85;3.45;;;;;;;-0.98;87.60;97789.70;2305018;77;21146;-65
2021/01/13 06:05:46;;;;;;;14.07;3.80;;;;;;;-1.00;86.69;97819.34;2312887;77;21715;-65
2021/01/13 06:08:47;;;;;;;10.08;3.33;;;;;;;-1.02;87.19;97802.26;2304070;77;21280;-67
2021/01/13 06:11:49;;;;;;;12.37;3.50;;;;;;;-1.07;86.48;97806.27;2276613;77;21248;-67
2021/01/13 06:14:50;;;;;;;11.35;3.05;;;;;;;-1.13;86.94;97814.19;2291269;77;21694;-66
2021/01/13 06:17:51;;;;;;;10.80;3.92;;;;;;;-1.19;87.10;97819.49;2309691;77;21272;-67
2021/01/13 06:20:52;;;;;;;11.55;3.55;;;;;;;-1.24;87.08;97828.19;2325841;76;21295;-66
2021/01/13 06:23:53;;;;;;;13.48;3.95;;;;;;;-1.27;86.94;97827.45;2311368;77;21098;-66
2021/01/13 06:26:54;;;;;;;13.40;4.03;;;;;;;-1.31;87.38;97846.43;2308953;77;21739;-65
2021/01/13 06:29:55;;;;;;;12.58;3.67;;;;;;;-1.33;87.20;97852.08;2307792;77;21142;-66
2021/01/13 06:32:57;;;;;;;12.47;3.83;;;;;;;-1.37;87.70;97841.47;2307811;77;21676;-67
2021/01/13 06:35:58;;;;;;;13.83;3.87;;;;;;;-1.40;87.70;97847.54;2304947;77;21291;-66
2021/01/13 06:38:59;;;;;;;12.13;3.35;;;;;;;-1.45;87.83;97852.82;2289936;77;21233;-68
2021/01/13 06:42:01;;;;;;;12.25;3.02;;;;;;;-1.47;87.63;97853.29;2309579;77;21261;-69
2021/01/13 06:45:02;;;;;;;12.05;3.72;;;;;;;-1.50;87.44;97864.12;2308011;77;21260;-69
2021/01/13 06:48:04;;;;;;;13.43;3.60;;;;;;;-1.52;86.93;97872.30;2276554;77;21723;-67
2021/01/13 06:51:05;;;;;;;11.50;3.40;;;;;;;-1.52;86.93;97879.59;2286049;77;21155;-65
2021/01/13 06:54:06;;;;;;;12.53;3.12;;;;;;;-1.52;86.52;97878.73;2292724;77;21103;-69
2021/01/13 06:57:07;;;;;;;14.05;3.05;;;;;;;-1.52;85.75;97885.16;2304267;77;21244;-66
2021/01/13 07:00:08;;;;;;;10.72;3.15;;;;;;;-1.51;85.51;97895.86;2329382;76;21284;-71
2021/01/13 07:03:09;;;;;;;11.00;3.05;;;;;;;-1.50;85.88;97893.70;2312749;77;21125;-71
2021/01/13 07:06:10;;;;;;;8.70;2.65;;;;;;;-1.54;85.60;97910.09;2308420;77;21129;-70
2021/01/13 07:09:12;;;;;;;12.05;3.37;;;;;;;-1.54;85.98;97895.50;2305424;77;21263;-71
2021/01/13 07:12:14;;;;;;;11.00;3.15;;;;;;;-1.53;85.99;97915.20;2314110;77;21763;-71
2021/01/13 07:15:15;;;;;;;12.28;3.10;;;;;;;-1.59;86.52;97917.94;2313075;77;21268;-71
2021/01/13 07:18:16;;;;;;;11.03;3.20;;;;;;;-1.59;87.14;97909.77;2311430;77;21244;-72
2021/01/13 07:21:17;;;;;;;18.27;3.42;;;;;;;-1.62;87.56;97916.28;2302588;77;21264;-72
2021/01/13 07:24:18;;;;;;;13.35;2.90;;;;;;;-1.64;87.61;97915.50;2307717;77;21707;-71
2021/01/13 07:27:20;;;;;;;15.72;3.47;;;;;;;-1.65;87.54;97928.37;2334838;76;21689;-72
2021/01/13 07:30:21;;;;;;;14.58;3.70;;;;;;;-1.63;87.82;97922.77;2268243;77;21260;-70
2021/01/13 07:33:22;;;;;;;12.43;3.85;;;;;;;-1.62;87.69;97928.31;2288308;77;21253;-68
2021/01/13 07:36:23;;;;;;;17.07;3.77;;;;;;;-1.60;87.66;97929.10;2274225;77;21300;-67
2021/01/13 07:39:24;;;;;;;15.28;3.90;;;;;;;-1.57;87.69;97932.88;2266382;77;21284;-66
2021/01/13 07:42:25;;;;;;;16.62;4.37;;;;;;;-1.53;87.22;97935.77;2263719;77;21285;-68
2021/01/13 07:45:26;;;;;;;17.17;4.37;;;;;;;-1.49;86.67;97931.41;2269340;77;21264;-65
2021/01/13 07:48:28;;;;;;;17.45;4.28;;;;;;;-1.45;86.36;97937.71;2266600;77;21281;-66
2021/01/13 07:51:29;;;;;;;15.08;4.25;;;;;;;-1.42;85.89;97942.77;2267814;77;21768;-66
2021/01/13 07:54:30;;;;;;;14.28;4.08;;;;;;;-1.42;85.82;97951.77;2252039;78;21293;-66
2021/01/13 07:57:31;;;;;;;18.85;5.67;;;;;;;-1.42;85.80;97951.77;2308730;76;21265;-67
2021/01/13 08:00:33;;;;;;;17.62;4.35;;;;;;;-1.40;85.52;97947.41;2263949;78;21780;-68
2021/01/13 08:03:34;;;;;;;18.12;4.42;;;;;;;-1.35;85.37;97952.89;2266832;77;21293;-67
2021/01/13 08:06:35;;;;;;;19.62;4.47;;;;;;;-1.26;84.58;97953.94;2249093;77;21146;-68
2021/01/13 08:09:36;;;;;;;15.85;4.58;;;;;;;-1.17;83.72;97948.98;2279223;77;21253;-67
2021/01/13 08:12:37;;;;;;;16.82;4.20;;;;;;;-1.06;83.22;97953.39;2271763;77;21272;-66
2021/01/13 08:15:38;;;;;;;18.10;3.60;;;;;;;-0.99;82.52;97950.18;2269160;77;21705;-66
2021/01/13 08:18:45;;;;;;;17.75;4.37;;;;;;;-0.99;81.88;97961.77;2251732;77;21693;-69
2021/01/13 08:21:53;;;;;;;19.85;4.62;;;;;;;-0.94;81.66;97958.17;2250752;77;21553;-70
2021/01/13 08:24:50;;;;;;;20.23;4.55;;;;;;;-0.82;81.30;97963.45;2277685;77;21730;-67
2021/01/13 08:27:52;;;;;;;20.62;4.83;;;;;;;-0.66;80.91;97971.56;2266706;77;21713;-70
2021/01/13 08:30:53;;;;;;;19.37;4.25;;;;;;;-0.50;79.98;97968.09;2254449;77;21693;-67
2021/01/13 08:33:55;;;;;;;19.50;4.50;;;;;;;-0.38;79.43;97969.44;2277785;77;21642;-67
2021/01/13 08:36:56;;;;;;;15.43;4.10;;;;;;;-0.37;78.35;97968.56;2310522;76;21685;-66
2021/01/13 08:39:57;;;;;;;15.28;3.92;;;;;;;-0.39;78.54;97973.77;2277815;77;21273;-70
2021/01/13 08:42:59;;;;;;;17.32;4.10;;;;;;;-0.43;78.50;97986.34;2269946;77;21263;-69
2021/01/13 08:46:00;;;;;;;16.48;3.60;;;;;;;-0.43;78.76;97981.61;2282373;77;21292;-71
2021/01/13 08:49:02;;;;;;;16.65;3.85;;;;;;;-0.46;78.90;97989.44;2279763;78;21154;-72
2021/01/13 08:52:03;;;;;;;20.25;3.65;;;;;;;-0.44;79.08;97985.93;2281813;78;21296;-71
2021/01/13 08:55:04;;;;;;;18.07;3.75;;;;;;;-0.49;78.42;97989.53;2281025;77;21304;-71
2021/01/13 08:58:06;;;;;;;18.35;3.80;;;;;;;-0.46;78.65;97986.86;2247827;78;21700;-70
2021/01/13 09:01:08;;;;;;;17.57;3.75;;;;;;;-0.41;78.75;97981.97;2262151;77;21268;-70
2021/01/13 09:04:09;;;;;;;16.73;3.95;;;;;;;-0.32;77.97;97995.02;2275864;77;21159;-71
2021/01/13 09:07:11;;;;;;;21.33;4.50;;;;;;;-0.20;77.62;97983.52;2278109;77;21570;-71
2021/01/13 09:10:12;;;;;;;21.10;4.83;;;;;;;0.04;77.30;97971.56;2272242;77;21264;-72
2021/01/13 09:13:13;;;;;;;25.00;5.23;;;;;;;0.40;76.25;97967.84;2277231;77;21300;-71
2021/01/13 09:16:15;;;;;;;22.60;6.03;;;;;;;0.50;75.92;97971.78;2261150;78;21174;-71
2021/01/13 09:19:18;;;;;;;22.50;5.45;;;;;;;0.61;75.48;97971.44;2269865;77;21702;-69
2021/01/13 09:22:19;;;;;;;20.82;5.03;;;;;;;0.54;74.87;97979.82;2279621;77;21560;-70
2021/01/13 09:25:21;;;;;;;20.97;5.12;;;;;;;0.50;75.29;97979.53;2275748;77;21130;-71
2021/01/13 09:28:22;;;;;;;18.45;3.77;;;;;;;0.42;75.13;97986.70;2266704;77;21273;-70
2021/01/13 09:31:23;;;;;;;22.75;4.97;;;;;;;0.38;75.66;97978.67;2236806;77;21130;-70
2021/01/13 09:34:24;;;;;;;22.67;5.35;;;;;;;0.25;75.96;97982.92;2262962;77;21261;-72
2021/01/13 09:37:25;;;;;;;23.80;5.80;;;;;;;0.29;76.22;97981.94;2281310;77;21716;-70
2021/01/13 09:40:27;;;;;;;19.60;5.67;;;;;;;0.32;76.41;97986.99;2307872;76;21269;-71
2021/01/13 09:43:28;;;;;;;20.48;5.03;;;;;;;0.43;76.17;97980.20;2259762;78;21296;-70
2021/01/13 09:46:31;;;;;;;23.15;5.33;;;;;;;0.51;75.35;97976.06;2262556;77;21764;-70
2021/01/13 09:49:32;;;;;;;21.23;4.78;;;;;;;0.58;75.78;97981.87;2259965;77;21310;-71
2021/01/13 09:52:34;;;;;;;20.68;4.50;;;;;;;0.60;75.45;97979.60;2270323;77;21277;-69
2021/01/13 09:55:35;;;;;;;21.52;5.15;;;;;;;0.62;74.72;97978.30;2269389;77;21257;-71
2021/01/13 09:58:37;;;;;;;24.23;5.65;;;;;;;0.68;75.22;97970.33;2313714;76;21581;-71
2021/01/13 10:01:38;;;;;;;17.15;4.80;;;;;;;0.67;74.79;97974.63;2285779;77;21272;-70
2021/01/13 10:04:39;;;;;;;22.17;4.92;;;;;;;0.73;74.66;97974.86;2256224;78;21277;-65
2021/01/13 10:07:40;;;;;;;20.70;5.75;;;;;;;0.93;74.62;97961.72;2237572;77;21256;-66
2021/01/13 10:10:42;;;;;;;20.37;4.58;;;;;;;1.23;74.59;97968.80;2284198;77;21701;-67
2021/01/13 10:13:43;;;;;;;20.08;4.42;;;;;;;1.33;72.96;97976.59;2251621;78;21276;-66
2021/01/13 10:16:44;;;;;;;23.57;5.20;;;;;;;1.45;72.51;97977.04;2266908;77;21281;-68
2021/01/13 10:19:46;;;;;;;17.67;4.30;;;;;;;1.38;72.14;97975.16;2275300;78;21303;-66
2021/01/13 10:22:47;;;;;;;16.62;4.28;;;;;;;1.47;72.29;97976.55;2231239;77;21122;-68
2021/01/13 10:25:48;;;;;;;16.93;4.28;;;;;;;1.51;72.47;97987.17;2275003;77;21117;-67
2021/01/13 10:28:49;;;;;;;23.47;4.78;;;;;;;1.46;72.40;97983.90;2260101;77;21161;-66
2021/01/13 10:31:50;;;;;;;20.85;4.37;;;;;;;1.44;72.54;97976.64;2316817;76;21266;-66
2021/01/13 10:34:52;;;;;;;21.45;5.20;;;;;;;1.47;72.63;97981.72;2272983;77;21731;-66
2021/01/13 10:37:53;;;;;;;19.73;4.30;;;;;;;1.40;73.38;97964.30;2277118;77;21269;-67
2021/01/13 10:40:54;;;;;;;20.70;4.60;;;;;;;1.31;73.15;97967.23;2271023;77;21283;-67
2021/01/13 10:43:55;;;;;;;23.27;5.80;;;;;;;1.17;73.52;97980.66;2253472;77;21296;-67
2021/01/13 10:46:57;;;;;;;22.13;5.95;;;;;;;1.12;74.45;97977.38;2285968;77;21728;-67
2021/01/13 10:49:58;;;;;;;23.00;5.62;;;;;;;1.10;74.19;97967.56;2280960;77;21292;-70
2021/01/13 10:52:59;;;;;;;19.15;5.22;;;;;;;1.03;74.58;97977.27;2277571;77;21716;-66
2021/01/13 10:56:00;;;;;;;19.57;5.15;;;;;;;1.04;74.23;97982.38;2263538;77;21293;-66
2021/01/13 10:59:02;;;;;;;19.87;4.47;;;;;;;1.04;74.47;97979.80;2273153;77;21270;-67
2021/01/13 11:02:03;;;;;;;18.45;4.70;;;;;;;1.08;74.68;97980.55;2257644;77;21280;-66
2021/01/13 11:05:04;;;;;;;17.95;4.62;;;;;;;1.13;74.76;97973.91;2268364;77;21284;-67
2021/01/13 11:08:05;;;;;;;19.90;4.25;;;;;;;1.17;75.09;97980.66;2277855;77;21260;-67
2021/01/13 11:11:07;;;;;;;19.90;4.47;;;;;;;1.23;74.54;97970.55;2310674;76;21263;-66
2021/01/13 11:14:09;;;;;;;18.05;4.12;;;;;;;1.27;74.22;97976.00;2288454;76;21260;-67
2021/01/13 11:17:10;;;;;;;21.20;4.65;;;;;;;1.14;74.14;97977.73;2315660;76;21292;-68
2021/01/13 11:20:11;;;;;;;20.57;4.47;;;;;;;1.09;73.95;97965.87;2275426;77;21264;-66
2021/01/13 11:23:12;;;;;;;22.27;5.12;;;;;;;1.20;74.24;97956.83;2278273;77;21158;-67
2021/01/13 11:26:13;;;;;;;17.12;3.92;;;;;;;1.18;73.31;97956.52;2262803;77;21697;-66
2021/01/13 11:29:14;;;;;;;15.75;4.03;;;;;;;1.37;74.29;97957.95;2273017;77;21288;-67
2021/01/13 11:32:16;;;;;;;19.73;4.67;;;;;;;1.42;73.13;97958.61;2269690;77;21285;-66
2021/01/13 11:35:17;;;;;;;17.87;4.28;;;;;;;1.41;72.60;97938.86;2276619;77;21324;-66
2021/01/13 11:38:19;;;;;;;17.90;4.90;;;;;;;1.51;72.76;97928.55;2274306;77;21280;-66
2021/01/13 11:41:20;;;;;;;22.45;5.30;;;;;;;2.20;72.06;97923.66;2263861;77;21272;-67
2021/01/13 11:44:22;;;;;;;21.10;4.87;;;;;;;2.71;69.90;97919.38;2263959;77;21665;-66
2021/01/13 11:47:24;;;;;;;22.95;5.22;;;;;;;2.92;67.91;97926.66;2266622;77;21284;-66
2021/01/13 11:50:26;;;;;;;17.12;4.67;;;;;;;3.11;67.55;97935.74;2257417;77;21285;-66
2021/01/13 11:53:28;;;;;;;19.27;4.78;;;;;;;3.07;68.42;97931.60;2270683;77;21704;-67
2021/01/13 11:56:29;;;;;;;21.77;4.95;;;;;;;2.81;67.71;97932.30;2254290;78;21130;-70
2021/01/13 11:59:31;;;;;;;20.17;4.90;;;;;;;2.31;69.25;97922.37;2269903;77;21270;-68
2021/01/13 12:02:32;;;;;;;17.73;4.25;;;;;;;2.00;70.45;97930.94;2259781;77;21277;-70
2021/01/13 12:05:34;;;;;;;20.17;4.22;;;;;;;1.82;70.69;97929.09;2280515;78;21277;-71
2021/01/13 12:08:35;;;;;;;22.25;4.95;;;;;;;1.41;72.14;97937.56;2272129;77;21340;-70
2021/01/13 12:11:37;;;;;;;20.25;4.17;;;;;;;1.16;72.69;97938.92;2248954;78;21712;-71
2021/01/13 12:14:39;;;;;;;17.98;4.45;;;;;;;1.02;73.21;97935.11;2312525;76;21282;-71
2021/01/13 12:17:41;;;;;;;13.85;3.52;;;;;;;0.86;74.03;97933.97;2256567;78;21273;-70
2021/01/13 12:20:42;;;;;;;20.35;4.35;;;;;;;0.77;74.56;97930.44;2261575;77;21723;-71
2021/01/13 12:23:46;;;;;;;22.25;5.28;;;;;;;0.58;75.86;97927.21;2266802;77;21593;-70
2021/01/13 12:26:46;;;;;;;21.42;4.83;;;;;;;0.49;76.76;97925.80;2279350;77;21733;-71
2021/01/13 12:29:48;;;;;;;23.70;4.90;;;;;;;0.41;77.46;97934.23;2270639;78;21272;-68
2021/01/13 12:32:49;;;;;;;23.27;5.65;;;;;;;0.34;78.96;97940.08;2317882;76;21277;-66
2021/01/13 12:35:50;;;;;;;18.50;5.30;;;;;;;0.37;79.25;97933.95;2262448;77;21260;-69
2021/01/13 12:38:51;;;;;;;20.97;5.80;;;;;;;0.42;79.18;97932.52;2270522;77;21104;-70
2021/01/13 12:41:52;;;;;;;26.75;6.72;;;;;;;0.25;80.08;97942.11;2266216;77;21336;-66
2021/01/13 12:44:54;;;;;;;22.50;5.53;;;;;;;0.17;80.88;97939.77;2271272;77;21288;-66
2021/01/13 12:47:55;;;;;;;20.02;4.95;;;;;;;0.22;81.55;97937.89;2317162;76;21269;-67
2021/01/13 12:50:56;;;;;;;26.07;7.00;;;;;;;0.24;81.70;97935.26;2318033;76;21269;-67
2021/01/13 12:53:58;;;;;;;27.10;7.70;;;;;;;0.28;81.60;97936.39;2308180;76;21343;-69
2021/01/13 12:57:00;;;;;;;33.38;9.03;;;;;;;0.29;81.45;97937.25;2313191;76;21281;-67
2021/01/13 13:00:01;;;;;;;32.70;10.03;;;;;;;0.31;81.41;97934.99;2325759;76;21277;-68
2021/01/13 13:03:02;;;;;;;33.05;10.23;;;;;;;0.27;81.51;97937.27;2264470;76;21264;-68
2021/01/13 13:06:03;;;;;;;36.73;10.43;;;;;;;0.21;81.39;97936.20;2272236;77;21712;-67
2021/01/13 13:09:05;;;;;;;26.27;7.40;;;;;;;0.15;81.80;97932.09;2276943;77;21304;-68
2021/01/13 13:12:06;;;;;;;29.57;8.03;;;;;;;0.06;82.29;97932.41;2274416;77;21284;-67
2021/01/13 13:15:07;;;;;;;31.90;9.53;;;;;;;0.03;82.36;97926.48;2272372;77;21297;-68
2021/01/13 13:18:08;;;;;;;28.90;8.43;;;;;;;-0.04;83.01;97941.34;2315680;76;21292;-68
2021/01/13 13:21:09;;;;;;;29.05;8.20;;;;;;;-0.02;83.34;97939.53;2284889;77;21288;-67
2021/01/13 13:24:11;;;;;;;26.10;8.30;;;;;;;-0.02;83.10;97942.95;2286800;77;21689;-66
2021/01/13 13:27:12;;;;;;;26.20;7.42;;;;;;;0.05;82.80;97931.17;2284587;77;21155;-67
2021/01/13 13:30:13;;;;;;;24.12;7.10;;;;;;;0.10;82.24;97933.99;2280696;78;21268;-67
2021/01/13 13:33:14;;;;;;;25.20;7.20;;;;;;;0.18;81.98;97938.88;2305356;76;21713;-72
2021/01/13 13:36:15;;;;;;;23.30;7.15;;;;;;;0.21;81.59;97936.66;2315898;76;21273;-69
2021/01/13 13:39:17;;;;;;;24.97;7.83;;;;;;;0.23;81.31;97941.30;2315921;76;22355;-68
2021/01/13 13:42:21;;;;;;;25.77;6.67;;;;;;;0.23;81.11;97945.17;2265328;77;21277;-67
2021/01/13 13:45:23;;;;;;;24.37;6.62;;;;;;;0.21;81.09;97943.94;2261321;77;21272;-71
2021/01/13 13:48:24;;;;;;;23.77;7.05;;;;;;;0.16;81.34;97949.25;2277208;77;21187;-72
2021/01/13 13:51:25;;;;;;;23.25;6.83;;;;;;;0.11;81.90;97954.16;2268385;78;21280;-70
2021/01/13 13:54:26;;;;;;;21.93;6.58;;;;;;;0.05;82.06;97943.60;2275611;77;21131;-70
2021/01/13 13:57:28;;;;;;;24.02;6.78;;;;;;;0.07;81.97;97944.84;2266910;77;21693;-72
2021/01/13 14:00:29;;;;;;;21.40;6.35;;;;;;;0.09;81.80;97940.49;2263819;77;21153;-73
2021/01/13 14:03:30;;;;;;;22.75;7.10;;;;;;;0.13;81.72;97951.94;2277106;77;21641;-71
2021/01/13 14:06:32;;;;;;;22.10;7.10;;;;;;;0.14;81.70;97961.38;2284989;77;21558;-72
2021/01/13 14:09:33;;;;;;;25.48;6.83;;;;;;;0.15;81.68;97951.89;2308446;76;21273;-70
2021/01/13 14:12:35;;;;;;;22.67;6.97;;;;;;;0.14;81.50;97957.50;2258864;77;21343;-71
2021/01/13 14:15:36;;;;;;;23.92;6.85;;;;;;;0.07;81.78;97959.88;2286605;77;21111;-73
2021/01/13 14:18:37;;;;;;;23.32;6.72;;;;;;;-0.01;82.13;97963.14;2284712;77;21700;-67